Time;durP1;ratioP1;P1;durP2;ratioP2;P2;SDS_P1;SDS_P2;PMS_P1;PMS_P2;Temp;Humidity;BMP_temperature;BMP_pressure;BME280_temperature;BME280_humidity;BME280_pressure;Samples;Min_cycle;Max_cycle;Signal;HPM_P1;HPM_P2
2021/12/17 00:01:44;;;;;;;42.23;12.10;;;;;;;3.26;100.00;102779.56;5086797;28;20679;-74
2021/12/17 00:04:26;;;;;;;30.70;11.23;;;;;;;3.26;100.00;102777.84;5088636;28;20702;-74
2021/12/17 00:06:52;;;;;;;35.23;11.43;;;;;;;3.27;100.00;102776.16;5087716;28;20698;-75
2021/12/17 00:09:19;;;;;;;24.70;10.33;;;;;;;3.27;100.00;102778.72;5081341;28;20225;-75
2021/12/17 00:11:46;;;;;;;31.53;11.07;;;;;;;3.28;100.00;102770.19;5082027;28;20206;-75
2021/12/17 00:14:18;;;;;;;28.77;11.37;;;;;;;3.25;100.00;102760.63;5082842;28;20193;-74
2021/12/17 00:16:44;;;;;;;36.73;11.27;;;;;;;3.27;100.00;102766.72;5091374;28;20219;-74
2021/12/17 00:19:22;;;;;;;36.63;11.70;;;;;;;3.26;100.00;102771.84;5096779;28;20655;-75
2021/12/17 00:46:35;;;;;;;33.73;11.67;;;;;;;3.27;100.00;102752.94;5032251;28;20202;-75
2021/12/17 00:50:01;;;;;;;33.63;10.70;;;;;;;3.25;100.00;102740.00;5077305;28;20386;-74
2021/12/17 00:52:34;;;;;;;42.07;11.43;;;;;;;3.26;100.00;102733.16;5088767;28;20206;-73
2021/12/17 00:55:02;;;;;;;27.87;11.33;;;;;;;3.29;100.00;102733.25;5085322;28;20650;-75
2021/12/17 00:57:35;;;;;;;32.27;10.50;;;;;;;3.31;100.00;102729.06;5096620;28;20189;-75
2021/12/17 01:00:05;;;;;;;33.57;11.27;;;;;;;3.31;100.00;102727.34;5098014;28;20220;-75
2021/12/17 01:02:36;;;;;;;28.83;11.67;;;;;;;3.33;100.00;102732.56;5091972;28;20230;-75
2021/12/17 01:05:08;;;;;;;31.70;10.43;;;;;;;3.32;100.00;102733.38;5080580;28;20194;-75
2021/12/17 01:07:38;;;;;;;32.63;11.70;;;;;;;3.32;100.00;102749.72;5094952;28;20212;-74
2021/12/17 01:10:10;;;;;;;34.97;11.30;;;;;;;3.34;100.00;102761.00;5101512;28;20218;-74
2021/12/17 01:12:48;;;;;;;26.40;10.40;;;;;;;3.35;100.00;102767.00;5099035;28;20670;-75
2021/12/17 01:15:30;;;;;;;32.70;10.37;;;;;;;3.36;100.00;102759.34;5089613;28;20199;-74
2021/12/17 01:18:18;;;;;;;33.90;10.43;;;;;;;3.37;100.00;102768.81;5093840;28;20196;-75
2021/12/17 01:21:18;;;;;;;30.93;11.07;;;;;;;3.38;100.00;102761.97;5094056;28;20251;-75
2021/12/17 01:24:05;;;;;;;21.60;10.00;;;;;;;3.37;100.00;102771.41;5097679;28;20198;-75
2021/12/17 01:35:53;;;;;;;24.47;10.17;;;;;;;3.41;100.00;102783.59;5087453;28;20193;-75
2021/12/17 01:41:45;;;;;;;31.00;10.13;;;;;;;3.39;100.00;102784.34;5087181;28;20220;-75
2021/12/17 01:44:13;;;;;;;28.00;10.27;;;;;;;3.39;100.00;102769.78;5086616;28;20196;-73
2021/12/17 01:46:40;;;;;;;27.17;10.00;;;;;;;3.37;100.00;102760.22;5088292;28;20982;-74
2021/12/17 01:49:25;;;;;;;26.33;9.47;;;;;;;3.39;100.00;102758.56;5084919;28;20241;-75
2021/12/17 02:00:15;;;;;;;28.27;9.13;;;;;;;3.40;100.00;102770.66;5089404;28;20213;-74
2021/12/17 02:02:45;;;;;;;23.23;9.13;;;;;;;3.41;100.00;102760.41;5087983;28;20198;-75
2021/12/17 02:05:15;;;;;;;28.07;8.50;;;;;;;3.41;100.00;102769.81;5091034;28;20672;-75
2021/12/17 02:07:43;;;;;;;23.53;9.63;;;;;;;3.41;100.00;102781.03;5094461;28;20194;-73
2021/12/17 02:11:11;;;;;;;28.97;9.43;;;;;;;3.42;100.00;102785.34;5088570;28;20230;-74
2021/12/17 02:22:20;;;;;;;27.13;8.90;;;;;;;3.44;100.00;102797.44;5092757;28;20197;-75
2021/12/17 02:32:59;;;;;;;27.67;8.20;;;;;;;3.48;100.00;102786.41;5091772;28;20237;-75
2021/12/17 02:35:37;;;;;;;23.47;8.20;;;;;;;3.46;100.00;102782.91;5092366;28;20225;-74
2021/12/17 02:38:06;;;;;;;26.47;9.57;;;;;;;3.47;100.00;102793.28;5078661;28;20229;-74
2021/12/17 02:46:55;;;;;;;25.10;7.20;;;;;;;3.47;100.00;102774.34;5088064;28;20303;-75
2021/12/17 02:49:23;;;;;;;26.67;8.50;;;;;;;3.46;100.00;102770.88;5090249;28;20263;-74
2021/12/17 02:51:50;;;;;;;28.33;8.10;;;;;;;3.47;100.00;102771.75;5099554;28;20205;-74
2021/12/17 02:54:19;;;;;;;22.40;8.50;;;;;;;3.47;100.00;102782.09;5086141;28;20206;-75
2021/12/17 02:56:45;;;;;;;24.03;8.23;;;;;;;3.47;100.00;102787.25;5107822;28;20275;-74
2021/12/17 02:59:13;;;;;;;21.37;7.37;;;;;;;3.46;100.00;102778.59;5098381;28;20761;-75
2021/12/17 03:01:44;;;;;;;20.07;7.30;;;;;;;3.47;100.00;102782.94;5090132;28;20199;-75
2021/12/17 03:04:12;;;;;;;26.23;8.70;;;;;;;3.45;100.00;102776.88;5093424;28;20193;-74
2021/12/17 03:06:40;;;;;;;23.47;7.37;;;;;;;3.46;100.00;102773.44;5088272;28;20198;-75
2021/12/17 03:09:07;;;;;;;23.70;8.07;;;;;;;3.47;100.00;102776.94;5092030;28;20223;-75
2021/12/17 03:11:35;;;;;;;21.20;7.67;;;;;;;3.48;100.00;102778.66;5094631;28;20225;-75
2021/12/17 03:14:01;;;;;;;22.60;8.10;;;;;;;3.47;100.00;102775.22;5082979;28;20649;-75
2021/12/17 03:16:33;;;;;;;28.07;8.07;;;;;;;3.47;100.00;102771.75;5091960;28;20707;-75
2021/12/17 03:19:06;;;;;;;24.83;7.43;;;;;;;3.46;100.00;102777.72;5090993;28;20679;-75
2021/12/17 03:24:18;;;;;;;23.13;7.50;;;;;;;3.47;100.00;102774.34;5084137;28;20571;-75
2021/12/17 03:26:47;;;;;;;27.63;8.07;;;;;;;3.46;100.00;102776.03;5096621;28;20759;-75
2021/12/17 03:29:14;;;;;;;28.63;7.90;;;;;;;3.48;100.00;102778.66;5080663;28;20298;-75
2021/12/17 03:31:46;;;;;;;26.03;8.17;;;;;;;3.48;100.00;102778.66;5083948;28;20206;-74
2021/12/17 03:34:17;;;;;;;31.30;7.90;;;;;;;3.49;100.00;102775.28;5085841;28;20198;-74
2021/12/17 03:36:47;;;;;;;27.57;7.90;;;;;;;3.48;100.00;102776.09;5091283;28;20201;-74
2021/12/17 03:39:14;;;;;;;21.80;7.23;;;;;;;3.47;100.00;102772.63;5093109;28;20204;-74
2021/12/17 03:41:47;;;;;;;20.47;6.97;;;;;;;3.47;100.00;102772.63;5087799;28;20260;-75
2021/12/17 03:44:16;;;;;;;23.73;7.27;;;;;;;3.46;100.00;102778.59;5093147;28;20203;-74
2021/12/17 03:47:01;;;;;;;22.13;6.87;;;;;;;3.46;100.00;102780.31;5087376;28;20574;-73
2021/12/17 03:49:36;;;;;;;25.87;7.90;;;;;;;3.45;100.00;102779.44;5083176;28;20223;-73
2021/12/17 03:52:05;;;;;;;22.80;7.17;;;;;;;3.47;100.00;102774.34;5092674;28;20202;-75
2021/12/17 03:54:36;;;;;;;23.40;7.80;;;;;;;3.46;100.00;102773.44;5089496;28;20208;-74
2021/12/17 03:57:09;;;;;;;24.97;7.40;;;;;;;3.45;100.00;102779.44;5086896;28;20187;-74
2021/12/17 03:59:38;;;;;;;25.17;7.93;;;;;;;3.45;100.00;102778.53;5094243;28;20682;-75
2021/12/17 04:02:05;;;;;;;28.83;7.33;;;;;;;3.46;100.00;102776.03;5088862;28;20191;-75
2021/12/17 04:04:32;;;;;;;27.23;7.53;;;;;;;3.47;100.00;102784.66;5096093;28;20276;-74
2021/12/17 04:07:17;;;;;;;20.50;7.33;;;;;;;3.47;100.00;102780.38;5098901;28;20690;-75
2021/12/17 04:10:08;;;;;;;27.67;7.37;;;;;;;3.46;100.00;102781.19;5091197;28;20278;-75
2021/12/17 04:12:47;;;;;;;25.13;7.07;;;;;;;3.46;100.00;102775.16;5093956;28;21868;-75
2021/12/17 04:15:16;;;;;;;23.07;6.70;;;;;;;3.45;100.00;102774.28;5092848;28;20209;-75
2021/12/17 04:17:46;;;;;;;19.77;7.00;;;;;;;3.45;100.00;102765.66;5088858;28;20662;-74
2021/12/17 04:20:13;;;;;;;27.63;7.03;;;;;;;3.42;100.00;102763.84;5105040;28;20297;-73
2021/12/17 04:22:40;;;;;;;26.70;7.50;;;;;;;3.43;100.00;102770.78;5095819;28;20664;-75
2021/12/17 04:25:06;;;;;;;29.80;7.20;;;;;;;3.45;100.00;102775.97;5089954;28;20594;-75
2021/12/17 04:27:33;;;;;;;21.00;6.87;;;;;;;3.45;100.00;102771.72;5099694;28;20805;-75
2021/12/17 04:30:01;;;;;;;14.87;6.13;;;;;;;3.44;100.00;102764.78;5095616;28;20223;-75
2021/12/17 04:32:28;;;;;;;17.53;6.63;;;;;;;3.43;100.00;102757.88;5092512;28;20209;-75
2021/12/17 04:34:55;;;;;;;29.20;7.70;;;;;;;3.43;100.00;102765.63;5095885;28;20208;-75
2021/12/17 04:37:28;;;;;;;21.40;6.90;;;;;;;3.45;100.00;102761.38;5101240;28;20616;-75
2021/12/17 04:39:59;;;;;;;19.60;6.17;;;;;;;3.45;100.00;102758.81;5083358;28;20969;-75
2021/12/17 04:42:41;;;;;;;16.63;6.53;;;;;;;3.46;100.00;102768.28;5092788;28;20203;-75
2021/12/17 04:45:09;;;;;;;21.67;7.00;;;;;;;3.43;100.00;102765.63;5083706;28;20206;-75
2021/12/17 04:58:42;;;;;;;27.93;7.20;;;;;;;3.42;100.00;102744.09;5049892;28;20218;-75
2021/12/17 05:01:12;;;;;;;17.23;5.83;;;;;;;3.42;100.00;102745.78;5088722;28;20219;-74
2021/12/17 05:03:43;;;;;;;19.70;6.40;;;;;;;3.41;100.00;102741.44;5094802;28;20219;-75
2021/12/17 05:06:10;;;;;;;15.37;6.33;;;;;;;3.42;100.00;102732.91;5101132;28;20294;-75
2021/12/17 05:08:55;;;;;;;20.27;5.80;;;;;;;3.42;100.00;102738.06;5086593;28;20195;-75
2021/12/17 05:11:38;;;;;;;26.50;7.70;;;;;;;3.41;100.00;102741.44;5085819;28;20288;-74
2021/12/17 05:19:45;;;;;;;17.73;6.57;;;;;;;3.40;100.00;102727.69;5093015;28;20220;-75
2021/12/17 05:22:12;;;;;;;13.70;6.17;;;;;;;3.41;100.00;102725.97;5095424;28;20189;-74
2021/12/17 05:24:40;;;;;;;18.97;6.50;;;;;;;3.42;100.00;102730.31;5074533;28;20206;-73
2021/12/17 05:27:07;;;;;;;23.47;6.60;;;;;;;3.41;100.00;102729.44;5083614;28;20295;-74
2021/12/17 05:29:42;;;;;;;22.67;6.73;;;;;;;3.40;100.00;102722.53;5084905;28;20599;-75
2021/12/17 05:32:09;;;;;;;18.60;6.73;;;;;;;3.41;100.00;102715.66;5087083;28;20203;-75
2021/12/17 05:34:38;;;;;;;20.03;6.77;;;;;;;3.39;100.00;102710.47;5083002;28;20641;-75
2021/12/17 05:37:08;;;;;;;19.90;6.30;;;;;;;3.41;100.00;102695.03;5079235;28;20246;-75
2021/12/17 05:39:35;;;;;;;17.50;6.40;;;;;;;3.41;100.00;102697.59;5089282;28;20590;-75
2021/12/17 05:42:05;;;;;;;14.57;5.70;;;;;;;3.40;100.00;102704.47;5081086;28;20210;-75
2021/12/17 05:44:45;;;;;;;17.10;5.33;;;;;;;3.40;100.00;102709.63;5097259;28;20194;-75
2021/12/17 05:47:12;;;;;;;19.63;6.03;;;;;;;3.41;100.00;102713.06;5081720;28;20241;-74
2021/12/17 05:49:40;;;;;;;16.13;6.03;;;;;;;3.41;100.00;102710.50;5085740;28;20316;-75
2021/12/17 05:52:08;;;;;;;18.10;6.00;;;;;;;3.41;100.00;102711.41;5082750;28;20194;-75
2021/12/17 05:54:35;;;;;;;17.30;5.07;;;;;;;3.41;100.00;102713.06;5082037;28;20209;-75
2021/12/17 05:57:04;;;;;;;20.57;5.53;;;;;;;3.43;100.00;102719.19;5081375;28;20711;-74
2021/12/17 05:59:35;;;;;;;18.77;5.53;;;;;;;3.44;100.00;102712.31;5094421;28;20219;-74
2021/12/17 06:02:08;;;;;;;12.03;5.40;;;;;;;3.43;100.00;102711.47;5084893;28;20666;-74
2021/12/17 06:04:36;;;;;;;15.33;5.93;;;;;;;3.43;100.00;102724.34;5077127;28;20232;-74
2021/12/17 06:07:06;;;;;;;17.00;6.17;;;;;;;3.44;100.00;102732.97;5082908;28;20616;-74
2021/12/17 06:09:36;;;;;;;19.63;5.70;;;;;;;3.42;100.00;102733.75;5083652;28;20230;-75
2021/12/17 06:12:08;;;;;;;14.67;5.27;;;;;;;3.43;100.00;102737.25;5085343;28;20198;-74
2021/12/17 06:14:35;;;;;;;17.23;5.70;;;;;;;3.45;100.00;102750.16;5086654;28;20348;-73
2021/12/17 06:17:01;;;;;;;17.67;5.77;;;;;;;3.42;100.00;102741.50;5083577;28;20303;-75
2021/12/17 06:19:40;;;;;;;21.00;5.77;;;;;;;3.44;100.00;102746.72;5087138;28;20223;-75
2021/12/17 06:22:08;;;;;;;15.73;5.27;;;;;;;3.45;100.00;102751.06;5084823;28;20200;-75
2021/12/17 06:24:36;;;;;;;16.47;5.73;;;;;;;3.44;100.00;102744.16;5088440;28;20286;-74
2021/12/17 06:27:03;;;;;;;15.30;5.03;;;;;;;3.46;100.00;102739.91;5080447;28;20626;-75
2021/12/17 06:29:30;;;;;;;16.13;5.20;;;;;;;3.45;100.00;102732.13;5087020;28;20226;-74
2021/12/17 06:32:03;;;;;;;17.63;4.33;;;;;;;3.46;100.00;102741.63;5081640;28;20660;-74
2021/12/17 06:34:30;;;;;;;14.83;4.77;;;;;;;3.46;100.00;102744.19;5087990;28;20255;-75
2021/12/17 06:36:58;;;;;;;19.83;5.27;;;;;;;3.47;100.00;102764.03;5101742;28;20197;-75
2021/12/17 06:39:25;;;;;;;13.90;4.67;;;;;;;3.46;100.00;102770.88;5089982;28;20217;-74
2021/12/17 06:41:52;;;;;;;13.87;4.67;;;;;;;3.47;100.00;102767.47;5091806;28;20214;-75
2021/12/17 06:44:22;;;;;;;16.13;5.10;;;;;;;3.44;100.00;102767.34;5087347;28;20232;-74
2021/12/17 06:46:56;;;;;;;9.70;4.33;;;;;;;3.45;100.00;102758.81;5093036;28;20202;-75
2021/12/17 06:49:29;;;;;;;16.57;5.10;;;;;;;3.46;100.00;102765.72;5096634;28;20383;-74
2021/12/17 06:55:07;;;;;;;13.13;4.47;;;;;;;3.47;100.00;102776.94;5050144;28;20202;-75
2021/12/17 07:01:15;;;;;;;17.87;5.20;;;;;;;3.46;100.00;102780.31;5056162;28;20313;-73
2021/12/17 07:18:43;;;;;;;19.10;5.13;;;;;;;3.49;100.00;102789.03;5096266;28;20214;-74
2021/12/17 07:21:22;;;;;;;15.23;5.77;;;;;;;3.48;100.00;102789.84;5102218;28;20243;-74
2021/12/17 07:35:37;;;;;;;11.83;5.37;;;;;;;3.49;100.00;102796.78;5098354;28;20213;-73
2021/12/17 07:40:49;;;;;;;13.43;5.27;;;;;;;3.48;100.00;102794.13;5095314;28;20225;-74
2021/12/17 07:43:25;;;;;;;19.17;6.13;;;;;;;3.48;100.00;102804.47;5096104;28;20198;-75
2021/12/17 07:45:53;;;;;;;15.77;5.63;;;;;;;3.50;100.00;102807.97;5100255;28;20753;-74
2021/12/17 07:48:24;;;;;;;17.13;5.93;;;;;;;3.50;100.00;102810.53;5092843;28;20206;-74
2021/12/17 07:51:05;;;;;;;19.50;7.10;;;;;;;3.49;100.00;102795.91;5092857;28;20221;-74
2021/12/17 07:53:42;;;;;;;31.70;10.83;;;;;;;3.50;100.00;102788.22;5095159;28;20754;-74
2021/12/17 07:56:17;;;;;;;26.83;10.80;;;;;;;3.47;100.00;102780.38;5092800;28;20197;-74
2021/12/17 07:58:44;;;;;;;18.60;5.47;;;;;;;3.48;100.00;102776.97;5091073;28;20352;-75
2021/12/17 08:01:13;;;;;;;19.13;5.67;;;;;;;3.48;100.00;102778.66;5094415;28;20213;-74
2021/12/17 08:03:44;;;;;;;14.87;6.20;;;;;;;3.48;100.00;102787.28;5092047;28;20194;-74
2021/12/17 08:06:31;;;;;;;14.60;5.97;;;;;;;3.50;100.00;102807.97;5092822;28;20302;-74
2021/12/17 08:09:09;;;;;;;18.67;6.87;;;;;;;3.49;100.00;102801.06;5094680;28;20277;-73
2021/12/17 08:11:39;;;;;;;14.93;6.77;;;;;;;3.49;100.00;102796.78;5101560;28;20308;-74
2021/12/17 08:14:10;;;;;;;18.10;6.90;;;;;;;3.50;100.00;102787.34;5101636;28;20197;-75
2021/12/17 08:16:45;;;;;;;19.60;6.63;;;;;;;3.51;100.00;102791.69;5085722;28;20239;-74
2021/12/17 08:24:52;;;;;;;18.07;6.57;;;;;;;3.51;100.00;102799.41;5096502;28;20667;-74
2021/12/17 08:27:32;;;;;;;15.80;6.93;;;;;;;3.51;100.00;102805.44;5090939;28;20198;-73
2021/12/17 08:30:22;;;;;;;17.50;6.63;;;;;;;3.52;100.00;102802.06;5093647;28;20220;-74
2021/12/17 08:32:58;;;;;;;17.23;7.43;;;;;;;3.52;100.00;102807.22;5099721;28;20692;-75
2021/12/17 08:35:25;;;;;;;20.83;7.20;;;;;;;3.54;100.00;102809.88;5090430;28;20293;-73
2021/12/17 08:37:58;;;;;;;19.47;6.83;;;;;;;3.54;100.00;102802.13;5093077;28;20830;-73
2021/12/17 08:40:26;;;;;;;18.40;6.37;;;;;;;3.56;100.00;102811.66;5085904;28;20212;-75
2021/12/17 08:42:54;;;;;;;17.53;7.43;;;;;;;3.56;100.00;102806.50;5090846;28;20263;-74
2021/12/17 08:45:22;;;;;;;22.87;11.17;;;;;;;3.57;100.00;102813.44;5101871;28;20198;-75
2021/12/17 08:47:50;;;;;;;14.13;5.80;;;;;;;3.58;100.00;102811.72;5096136;28;20220;-74
2021/12/17 08:50:37;;;;;;;16.83;8.53;;;;;;;3.60;100.00;102804.91;5090851;28;20320;-73
2021/12/17 08:53:03;;;;;;;16.33;7.37;;;;;;;3.61;100.00;102827.31;5086014;28;20210;-75
2021/12/17 08:55:31;;;;;;;17.97;6.23;;;;;;;3.60;100.00;102822.97;5090192;28;20199;-75
2021/12/17 08:57:58;;;;;;;20.37;8.57;;;;;;;3.59;100.00;102819.53;5080666;28;20250;-74
2021/12/17 09:00:25;;;;;;;15.93;7.90;;;;;;;3.61;100.00;102817.00;5092778;28;20301;-74
2021/12/17 09:02:59;;;;;;;18.07;6.90;;;;;;;3.61;100.00;102819.59;5089492;28;20204;-75
2021/12/17 09:05:40;;;;;;;19.07;6.67;;;;;;;3.62;100.00;102825.63;5085691;28;20668;-74
2021/12/17 09:08:09;;;;;;;14.60;6.60;;;;;;;3.61;100.00;102814.44;5096048;28;20761;-74
2021/12/17 09:10:44;;;;;;;13.70;6.40;;;;;;;3.62;100.00;102807.56;5093073;28;20222;-75
2021/12/17 09:13:10;;;;;;;19.63;6.33;;;;;;;3.62;100.00;102813.59;5095619;28;20194;-74
2021/12/17 09:15:37;;;;;;;17.17;6.07;;;;;;;3.63;100.00;102815.38;5093906;28;20850;-75
2021/12/17 09:18:04;;;;;;;18.57;6.17;;;;;;;3.64;100.00;102816.22;5088964;27;20205;-73
2021/12/17 09:20:33;;;;;;;14.90;6.03;;;;;;;3.64;100.00;102809.38;5096856;28;20209;-74
2021/12/17 09:23:01;;;;;;;16.23;6.30;;;;;;;3.64;100.00;102811.97;5083356;28;20595;-74
2021/12/17 09:25:31;;;;;;;20.87;6.60;;;;;;;3.63;100.00;102809.34;5096647;28;20189;-75
2021/12/17 09:28:02;;;;;;;16.37;6.03;;;;;;;3.65;100.00;102810.25;5085214;28;20210;-75
2021/12/17 09:30:47;;;;;;;18.37;6.47;;;;;;;3.66;100.00;102805.16;5084855;28;20232;-75
2021/12/17 09:33:14;;;;;;;15.37;6.10;;;;;;;3.67;100.00;102804.31;5084522;28;20207;-74
2021/12/17 09:35:40;;;;;;;18.73;6.37;;;;;;;3.64;100.00;102813.66;5094699;28;20202;-74
2021/12/17 09:38:10;;;;;;;17.57;6.83;;;;;;;3.63;100.00;102819.66;5095231;28;20202;-74
2021/12/17 09:40:37;;;;;;;15.77;6.33;;;;;;;3.64;100.00;102822.28;5095534;28;20243;-74
2021/12/17 09:43:04;;;;;;;18.03;6.33;;;;;;;3.65;100.00;102818.00;5092908;28;20259;-74
2021/12/17 09:45:30;;;;;;;18.40;6.53;;;;;;;3.63;100.00;102830.84;5096816;28;20796;-74
2021/12/17 09:47:57;;;;;;;13.37;6.37;;;;;;;3.64;100.00;102840.34;5086871;28;20204;-74
2021/12/17 09:50:24;;;;;;;16.37;6.50;;;;;;;3.64;100.00;102832.63;5086081;28;20223;-74
2021/12/17 09:52:53;;;;;;;17.33;6.93;;;;;;;3.65;100.00;102831.78;5085903;28;20195;-74
2021/12/17 09:55:21;;;;;;;17.27;6.60;;;;;;;3.59;100.00;102837.59;5093001;28;20972;-74
2021/12/17 09:57:47;;;;;;;19.17;6.80;;;;;;;3.62;100.00;102851.41;5100481;28;20211;-75
2021/12/17 10:00:19;;;;;;;15.07;6.93;;;;;;;3.60;100.00;102852.22;5090980;28;20224;-74
2021/12/17 10:02:46;;;;;;;15.60;7.27;;;;;;;3.63;100.00;102858.34;5084714;28;20293;-73
2021/12/17 10:05:15;;;;;;;20.77;8.43;;;;;;;3.62;100.00;102851.41;5095313;28;20197;-74
2021/12/17 10:07:44;;;;;;;22.17;8.67;;;;;;;3.60;100.00;102844.47;5089749;28;20205;-74
2021/12/17 10:10:11;;;;;;;24.80;9.47;;;;;;;3.62;100.00;102854.00;5087025;28;20628;-74
2021/12/17 10:12:40;;;;;;;20.37;8.17;;;;;;;3.61;100.00;102853.13;5088347;28;20215;-74
2021/12/17 10:15:09;;;;;;;21.83;8.00;;;;;;;3.59;100.00;102855.66;5090102;28;20288;-74
2021/12/17 10:17:37;;;;;;;15.47;7.13;;;;;;;3.59;100.00;102844.47;5082076;28;20217;-74
2021/12/17 10:20:06;;;;;;;21.03;7.83;;;;;;;3.59;100.00;102845.31;5094391;28;20320;-74
2021/12/17 10:22:33;;;;;;;16.93;7.40;;;;;;;3.60;100.00;102841.91;5088059;28;20201;-74
2021/12/17 10:25:05;;;;;;;21.30;7.63;;;;;;;3.60;100.00;102847.06;5076342;28;20202;-74
2021/12/17 10:27:34;;;;;;;16.83;7.73;;;;;;;3.59;100.00;102844.47;5092553;28;20201;-74
2021/12/17 10:30:12;;;;;;;19.60;6.93;;;;;;;3.60;100.00;102852.22;5080814;28;20270;-74
2021/12/17 10:32:44;;;;;;;22.97;7.50;;;;;;;3.64;100.00;102850.66;5087070;28;20205;-75
2021/12/17 10:35:13;;;;;;;11.53;6.27;;;;;;;3.66;100.00;102850.69;5071433;28;20207;-73
2021/12/17 10:37:41;;;;;;;12.43;6.97;;;;;;;3.67;100.00;102842.16;5085557;28;20222;-75
2021/12/17 10:40:20;;;;;;;17.30;6.33;;;;;;;3.66;100.00;102846.44;5084914;28;20282;-75
2021/12/17 10:42:55;;;;;;;20.80;9.13;;;;;;;3.72;100.00;102844.06;5087630;28;20217;-75
2021/12/17 10:45:27;;;;;;;18.67;7.63;;;;;;;3.73;100.00;102847.53;5082742;28;20686;-74
2021/12/17 10:48:13;;;;;;;12.63;6.00;;;;;;;3.72;100.00;102843.22;5091346;28;20216;-74
2021/12/17 10:50:39;;;;;;;12.30;5.40;;;;;;;3.77;100.00;102846.84;5092790;28;20213;-74
2021/12/17 10:53:08;;;;;;;18.63;7.37;;;;;;;3.78;100.00;102836.59;5089206;28;20190;-74
2021/12/17 10:55:35;;;;;;;11.53;6.23;;;;;;;3.77;100.00;102839.09;5095901;28;20201;-74
2021/12/17 10:58:02;;;;;;;16.90;6.93;;;;;;;3.83;100.00;102841.03;5095227;28;20201;-75
2021/12/17 11:00:30;;;;;;;22.23;7.93;;;;;;;3.87;100.00;102851.53;5089965;28;20217;-74
2021/12/17 11:02:56;;;;;;;14.50;5.20;;;;;;;3.85;100.00;102847.13;5077215;28;20201;-75
2021/12/17 11:05:24;;;;;;;10.13;5.03;;;;;;;3.90;100.00;102851.63;5083769;28;20201;-74
2021/12/17 11:07:52;;;;;;;15.70;6.10;;;;;;;3.87;100.00;102841.22;5082292;28;20217;-74
2021/12/17 11:10:31;;;;;;;14.77;5.40;;;;;;;3.85;100.00;102845.41;5082975;28;20214;-74
2021/12/17 11:12:57;;;;;;;20.63;7.97;;;;;;;3.90;100.00;102843.00;5099010;28;20212;-74
2021/12/17 11:15:26;;;;;;;12.93;6.30;;;;;;;3.93;100.00;102849.16;5079488;28;20725;-75
2021/12/17 11:17:56;;;;;;;15.40;5.77;;;;;;;3.97;100.00;102851.06;5086024;28;20202;-75
2021/12/17 11:20:26;;;;;;;15.53;5.27;;;;;;;3.92;100.00;102855.16;5083102;28;20218;-75
2021/12/17 11:22:54;;;;;;;12.57;5.27;;;;;;;3.90;100.00;102861.06;5097044;28;20205;-73
2021/12/17 11:25:22;;;;;;;11.03;5.07;;;;;;;3.93;100.00;102867.22;5097493;28;20205;-75
2021/12/17 11:27:50;;;;;;;11.47;5.00;;;;;;;3.94;100.00;102862.94;5076360;28;20643;-74
2021/12/17 11:30:18;;;;;;;14.87;5.03;;;;;;;3.94;100.00;102865.50;5079656;28;20222;-74
2021/12/17 11:32:46;;;;;;;14.87;4.97;;;;;;;3.92;100.00;102856.84;5087998;28;20213;-73
2021/12/17 11:35:16;;;;;;;11.83;5.20;;;;;;;3.87;100.00;102850.63;5098937;28;20204;-74
2021/12/17 11:37:45;;;;;;;8.23;4.37;;;;;;;3.88;100.00;102852.41;5100267;28;20598;-74
2021/12/17 11:40:21;;;;;;;10.67;4.20;;;;;;;3.88;100.00;102842.06;5090277;28;20758;-74
2021/12/17 11:43:04;;;;;;;9.97;4.17;;;;;;;3.93;100.00;102844.00;5095198;28;20199;-74
2021/12/17 11:45:31;;;;;;;16.13;4.30;;;;;;;3.97;100.00;102839.81;5092025;28;20226;-74
2021/12/17 11:48:16;;;;;;;10.50;4.27;;;;;;;3.96;100.00;102840.66;5096592;28;20595;-74
2021/12/17 11:50:44;;;;;;;19.33;4.70;;;;;;;3.98;100.00;102833.84;5099625;28;20642;-73
2021/12/17 11:53:22;;;;;;;11.90;4.07;;;;;;;4.03;100.00;102828.84;5093760;28;20209;-74
2021/12/17 11:55:55;;;;;;;12.47;4.00;;;;;;;4.00;100.00;102814.13;5095671;28;20194;-74
2021/12/17 11:58:43;;;;;;;17.03;4.40;;;;;;;4.04;100.00;102826.31;5097262;28;20235;-75
2021/12/17 12:01:10;;;;;;;14.47;4.47;;;;;;;3.97;100.00;102837.25;5095020;28;20399;-74
2021/12/17 12:03:36;;;;;;;9.80;4.20;;;;;;;3.98;100.00;102834.72;5100032;28;20281;-73
2021/12/17 12:06:04;;;;;;;9.57;4.43;;;;;;;3.94;100.00;102842.28;5088932;28;20553;-75
2021/12/17 12:08:37;;;;;;;12.83;5.20;;;;;;;3.93;100.00;102845.72;5086299;28;20198;-74
2021/12/17 12:11:07;;;;;;;9.80;4.30;;;;;;;3.94;100.00;102843.19;5087234;28;20267;-75
2021/12/17 12:13:35;;;;;;;11.47;4.50;;;;;;;3.97;100.00;102848.47;5080067;28;20205;-73
2021/12/17 12:16:03;;;;;;;10.80;4.60;;;;;;;4.01;100.00;102844.28;5085297;28;20228;-75
2021/12/17 12:18:50;;;;;;;12.40;4.33;;;;;;;4.00;100.00;102845.09;5090483;28;20202;-74
2021/12/17 12:21:19;;;;;;;6.53;3.93;;;;;;;4.01;100.00;102838.22;5093919;28;20212;-75
2021/12/17 12:23:58;;;;;;;11.77;4.10;;;;;;;4.02;100.00;102833.13;5095034;28;20209;-73
2021/12/17 12:26:43;;;;;;;8.67;4.70;;;;;;;3.98;100.00;102834.72;5092143;28;20910;-74
2021/12/17 12:29:21;;;;;;;11.73;4.37;;;;;;;3.99;100.00;102835.59;5083796;28;20291;-74
2021/12/17 12:32:00;;;;;;;10.00;4.33;;;;;;;4.00;100.00;102806.38;5090439;28;20231;-74
2021/12/17 12:34:41;;;;;;;11.10;4.50;;;;;;;3.97;100.00;102807.16;5082413;28;20634;-74
2021/12/17 12:37:19;;;;;;;10.40;4.20;;;;;;;3.98;100.00;102806.31;5083093;28;20191;-74
2021/12/17 12:40:15;;;;;;;14.30;4.47;;;;;;;4.00;100.00;102808.09;5084980;28;20284;-74
2021/12/17 12:42:49;;;;;;;11.10;4.97;;;;;;;4.05;100.00;102806.56;5087121;28;20706;-74
2021/12/17 12:45:17;;;;;;;12.70;4.57;;;;;;;4.05;100.00;102814.31;5083738;28;20412;-74
2021/12/17 12:47:58;;;;;;;15.07;4.60;;;;;;;4.06;100.00;102811.75;5094116;28;20207;-74
2021/12/17 12:50:27;;;;;;;9.50;4.77;;;;;;;4.08;100.00;102810.13;5083036;28;20221;-74
2021/12/17 12:52:57;;;;;;;10.37;4.73;;;;;;;4.10;100.00;102808.47;5083462;28;20352;-73
2021/12/17 12:55:28;;;;;;;10.13;4.37;;;;;;;4.12;100.00;102804.25;5090476;28;20203;-74
2021/12/17 12:58:02;;;;;;;13.50;5.00;;;;;;;4.12;100.00;102811.97;5096144;28;20206;-74
2021/12/17 13:00:31;;;;;;;10.30;4.60;;;;;;;4.12;100.00;102816.28;5086310;28;20215;-74
2021/12/17 13:03:00;;;;;;;13.87;4.80;;;;;;;4.10;100.00;102813.63;5084409;28;20207;-74
2021/12/17 13:05:27;;;;;;;11.60;4.90;;;;;;;4.08;100.00;102819.56;5100271;28;20695;-74
2021/12/17 13:07:57;;;;;;;13.83;4.70;;;;;;;4.11;100.00;102824.84;5094340;28;20871;-75
2021/12/17 13:10:26;;;;;;;10.37;4.70;;;;;;;4.07;100.00;102822.97;5098192;28;20213;-75
2021/12/17 13:13:03;;;;;;;12.63;4.73;;;;;;;4.05;100.00;102835.84;5098624;28;20210;-74
2021/12/17 13:15:41;;;;;;;9.53;4.67;;;;;;;4.05;100.00;102833.25;5085661;28;20877;-75
2021/12/17 13:21:03;;;;;;;10.97;4.77;;;;;;;4.01;100.00;102820.16;5083073;28;20230;-74
2021/12/17 13:23:36;;;;;;;10.93;4.80;;;;;;;4.00;100.00;102829.63;5090052;28;20250;-75
2021/12/17 13:26:09;;;;;;;12.07;4.83;;;;;;;4.00;100.00;102833.91;5104099;28;20292;-73
2021/12/17 13:28:47;;;;;;;12.60;4.87;;;;;;;4.00;100.00;102824.47;5092144;28;20199;-74
2021/12/17 13:31:26;;;;;;;8.20;4.40;;;;;;;3.95;100.00;102824.28;5101401;28;20749;-75
2021/12/17 13:33:53;;;;;;;15.97;5.83;;;;;;;3.96;100.00;102828.63;5090058;28;20207;-75
2021/12/17 13:36:19;;;;;;;15.10;5.23;;;;;;;3.97;100.00;102832.09;5099022;28;20204;-74
2021/12/17 13:38:48;;;;;;;13.33;4.73;;;;;;;3.95;100.00;102824.28;5078250;28;20202;-74
2021/12/17 13:41:19;;;;;;;8.63;4.33;;;;;;;3.97;100.00;102821.75;5089710;28;20270;-75
2021/12/17 13:43:47;;;;;;;12.90;5.43;;;;;;;3.97;100.00;102821.75;5080960;28;20201;-74
2021/12/17 13:46:13;;;;;;;14.67;4.87;;;;;;;3.95;100.00;102810.50;5087657;28;20198;-74
2021/12/17 13:48:39;;;;;;;10.90;5.10;;;;;;;3.96;100.00;102820.00;5088683;28;20205;-75
2021/12/17 13:51:13;;;;;;;16.13;4.70;;;;;;;3.94;100.00;102814.78;5089002;28;20245;-75